Thunder radar more information blitzortung!


Radar de pluja more information rain snow radar


Visita la nostra xarxa de llocs de meteo:

Template documentation
and downloads

And another site



No particular awareness of the weather is required.    There are no Weather-warnings

Pagina Historial Weather Underground text

Diari Resum Juny 10, 2017 Unitats:  Imperial    Mètric   Tant
« Previous Dia
SegĂźent Dia »
Diari Setmana Mensual Anual Personalitzada
  Maxima: Minima: Media:
Temperatura: TemperatureC °F 15.4 °F 26 °F
Punt de rosada: DewpointC °F 7.8 °F 11.3 °F
Humitat: Humidity % 24 % 43 %
Wind Speed: WindSpeedKMH mph 0.0 mph 6.3 mph
RĂ fegues de vent: WindSpeedGustKMH mph - -
Vent:- - SSW
Pression baro: PressurehPa in 1014.8 in -
Precipitacions: 0.0 in    
Historical Graphs
 
 
Dades de taula per Juny 10, 2017
Temps Temperatura Punt de rosada Pression baro Vent Wind Speed RĂ fegues de vent Humitat Rainfall Rate (Hourly)
TemperatureC °F DewpointC °F PressurehPa in Calm     Humidity % HourlyPrecipMM in
00:00 16.8 °F 13.7 °F 1017.8 in Calm     82 % 0.0 in
00:01 19.7 °F 14.7 °F 1017.8 in NNW 1.9 mph   73 % 0.0 in
00:06 19.6 °F 14.8 °F 1018.8 in NNE 1.9 mph 1.9 mph 74 % 0.0 in
00:10 16.6 °F 13.3 °F 1017.8 in WNW 1.6 mph 3.2 mph 81 % 0.0 in
00:20 16.5 °F 13.2 °F 1017.8 in Calm   3.2 mph 81 % 0.0 in
00:30 16.0 °F 12.6 °F 1017.8 in WNW 1.6 mph 3.2 mph 80 % 0.0 in
00:40 15.8 °F 12.2 °F 1017.8 in WSW 1.6 mph 3.2 mph 79 % 0.0 in
00:50 15.6 °F 11.9 °F 1017.8 in Calm   3.2 mph 79 % 0.0 in
01:00 15.6 °F 11.9 °F 1017.8 in Calm   3.2 mph 79 % 0.0 in
01:10 15.6 °F 11.9 °F 1017.8 in WSW 1.6 mph 3.2 mph 79 % 0.0 in
01:20 15.5 °F 11.9 °F 1017.8 in WSW 1.6 mph 1.6 mph 79 % 0.0 in
01:30 15.4 °F 11.8 °F 1017.8 in WSW 1.6 mph 3.2 mph 79 % 0.0 in
01:40 15.5 °F 11.9 °F 1017.8 in Calm   3.2 mph 79 % 0.0 in
01:50 15.4 °F 11.8 °F 1017.8 in SW 3.2 mph 4.8 mph 79 % 0.0 in
02:00 15.4 °F 11.8 °F 1017.8 in SW 3.2 mph 4.8 mph 79 % 0.0 in
02:10 15.5 °F 11.9 °F 1018.8 in SW 3.2 mph 3.2 mph 79 % 0.0 in
02:20 15.7 °F 12.1 °F 1018.8 in SW 1.6 mph 3.2 mph 79 % 0.0 in
02:30 16.2 °F 12.6 °F 1018.8 in Calm   1.6 mph 79 % 0.0 in
02:40 17.5 °F 13.8 °F 1018.8 in Calm     79 % 0.0 in
02:50 18.8 °F 14.7 °F 1018.8 in Calm   1.6 mph 77 % 0.0 in
03:00 19.4 °F 14.7 °F 1018.8 in Calm     74 % 0.0 in
03:10 19.7 °F 14.7 °F 1018.8 in SE 1.6 mph 3.2 mph 73 % 0.0 in
03:20 19.3 °F 14.1 °F 1018.8 in SSW 3.2 mph 3.2 mph 72 % 0.0 in
03:30 19.5 °F 14.3 °F 1018.8 in SW 1.6 mph 3.2 mph 72 % 0.0 in
03:40 20.3 °F 14.7 °F 1018.8 in SW 1.6 mph 3.2 mph 70 % 0.0 in
03:50 21.4 °F 15.2 °F 1018.8 in Calm   3.2 mph 68 % 0.0 in
04:00 22.0 °F 15.1 °F 1018.8 in ESE 1.6 mph 3.2 mph 65 % 0.0 in
04:10 22.4 °F 15.5 °F 1018.8 in Calm   6.4 mph 65 % 0.0 in
04:20 22.6 °F 15.2 °F 1018.8 in SSW 1.6 mph 3.2 mph 63 % 0.0 in
04:30 23.0 °F 15.6 °F 1019.9 in SW 3.2 mph 3.2 mph 63 % 0.0 in
04:40 23.4 °F 15.7 °F 1018.8 in SW 1.6 mph 4.8 mph 62 % 0.0 in
04:50 24.0 °F 15.8 °F 1018.8 in West 3.2 mph 3.2 mph 60 % 0.0 in
05:00 24.8 °F 16.2 °F 1018.8 in Calm   4.8 mph 59 % 0.0 in
05:10 25.0 °F 16.2 °F 1019.9 in NE 1.6 mph 3.2 mph 58 % 0.0 in
05:20 25.4 °F 15.7 °F 1019.9 in ENE 3.2 mph 4.8 mph 55 % 0.0 in
05:30 26.2 °F 16.2 °F 1019.9 in SE 3.2 mph 3.2 mph 54 % 0.0 in
05:40 26.9 °F 16.8 °F 1018.8 in SSE 1.6 mph 4.8 mph 54 % 0.0 in
05:50 27.6 °F 16.6 °F 1018.8 in SSE 1.6 mph 3.2 mph 51 % 0.0 in
10:56 27.7 °F 15.7 °F 1018.8 in SSE 3.7 mph 3.7 mph 48 % 0.0 in
11:01 27.6 °F 14.9 °F 1018.8 in ESE 5.6 mph 5.6 mph 46 % 0.0 in
11:06 28.0 °F 15.9 °F 1018.8 in West 3.7 mph 3.7 mph 48 % 0.0 in
11:11 28.8 °F 16.4 °F 1018.8 in WSW 2.6 mph 2.6 mph 47 % 0.0 in
11:16 29.0 °F 16.2 °F 1018.8 in WSW 3.7 mph 3.7 mph 46 % 0.0 in
11:21 29.0 °F 15.9 °F 1017.8 in WSW 6.9 mph 6.9 mph 45 % 0.0 in
11:26 29.0 °F 15.5 °F 1017.8 in SSW 7.4 mph 7.4 mph 44 % 0.0 in
11:31 29.5 °F 15.6 °F 1017.8 in SW 7.4 mph 7.4 mph 43 % 0.0 in
11:36 29.3 °F 15.4 °F 1017.8 in SW 5.6 mph 5.6 mph 43 % 0.0 in
11:41 29.8 °F 15.5 °F 1017.8 in WNW 3.7 mph 3.7 mph 42 % 0.0 in
11:46 29.9 °F 14.8 °F 1017.8 in WSW 1.9 mph 2.6 mph 40 % 0.0 in
11:51 30.0 °F 14.6 °F 1017.8 in SW 9.3 mph 9.3 mph 39 % 0.0 in
11:56 30.5 °F 14.6 °F 1017.8 in SW 3.7 mph 3.7 mph 38 % 0.0 in
12:01 30.6 °F 13.4 °F 1017.8 in SSE 5.6 mph 5.6 mph 35 % 0.0 in
12:06 30.0 °F 12.4 °F 1017.8 in South 3.9 mph 3.9 mph 34 % 0.0 in
12:11 30.4 °F 12.8 °F 1017.8 in ESE 5.0 mph 5.0 mph 34 % 0.0 in
12:16 29.8 °F 12.7 °F 1017.8 in East 7.4 mph 7.4 mph 35 % 0.0 in
12:21 30.2 °F 13.1 °F 1017.8 in SE 9.3 mph 9.3 mph 35 % 0.0 in
12:26 30.4 °F 14.5 °F 1017.8 in SW 11.1 mph 11.1 mph 38 % 0.0 in
12:27 30.4 °F 14.5 °F 1017.8 in SW 11.1 mph 11.1 mph 38 % 0.0 in
12:32 30.9 °F 14.9 °F 1017.8 in West 9.3 mph 9.3 mph 38 % 0.0 in
12:37 30.9 °F 14.1 °F 1017.8 in WSW 5.6 mph 5.6 mph 36 % 0.0 in
12:42 31.0 °F 14.2 °F 1017.8 in ESE 5.6 mph 5.8 mph 36 % 0.0 in
12:47 31.0 °F 14.2 °F 1016.8 in WSW 7.4 mph 7.4 mph 36 % 0.0 in
12:52 30.9 °F 14.1 °F 1016.8 in East 3.7 mph 3.7 mph 36 % 0.0 in
12:57 31.3 °F 14.4 °F 1016.8 in SE 3.7 mph 3.7 mph 36 % 0.0 in
13:02 31.5 °F 14.6 °F 1016.8 in SW 11.1 mph 11.1 mph 36 % 0.0 in
13:07 31.7 °F 13.9 °F 1016.8 in SSE 5.6 mph 5.6 mph 34 % 0.0 in
13:12 31.8 °F 14.4 °F 1016.8 in SW 4.2 mph 4.2 mph 35 % 0.0 in
13:17 32.4 °F 15.0 °F 1016.8 in SSW 4.2 mph 4.2 mph 35 % 0.0 in
13:22 32.1 °F 14.3 °F 1016.8 in NNE 5.6 mph 5.6 mph 34 % 0.0 in
13:27 32.0 °F 13.7 °F 1016.8 in South 3.7 mph 3.7 mph 33 % 0.0 in
13:32 31.8 °F 13.1 °F 1015.8 in ESE 7.4 mph 7.4 mph 32 % 0.0 in
13:37 31.5 °F 12.8 °F 1015.8 in East 9.7 mph 9.7 mph 32 % 0.0 in
13:42 32.0 °F 13.2 °F 1015.8 in East 7.4 mph 7.4 mph 32 % 0.0 in
13:47 31.4 °F 13.2 °F 1015.8 in NE 9.3 mph 9.3 mph 33 % 0.0 in
13:52 31.1 °F 12.9 °F 1015.8 in ESE 13.0 mph 13.0 mph 33 % 0.0 in
13:57 30.6 °F 12.0 °F 1015.8 in ENE 16.7 mph 16.7 mph 32 % 0.0 in
14:02 30.7 °F 11.6 °F 1015.8 in SSE 9.3 mph 9.3 mph 31 % 0.0 in
14:07 30.8 °F 12.2 °F 1015.8 in ESE 14.8 mph 14.8 mph 32 % 0.0 in
14:12 30.6 °F 11.1 °F 1015.8 in SSE 14.8 mph 14.8 mph 30 % 0.0 in
14:17 30.9 °F 11.3 °F 1015.8 in ESE 14.8 mph 14.8 mph 30 % 0.0 in
14:22 30.5 °F 10.4 °F 1015.8 in ESE 16.7 mph 16.7 mph 29 % 0.0 in
14:27 30.6 °F 11.1 °F 1015.8 in ESE 13.7 mph 13.7 mph 30 % 0.0 in
14:32 30.3 °F 10.3 °F 1015.8 in East 9.3 mph 10.0 mph 29 % 0.0 in
14:37 30.4 °F 10.4 °F 1015.8 in East 11.1 mph 11.1 mph 29 % 0.0 in
14:42 30.9 °F 10.8 °F 1015.8 in SE 13.0 mph 13.0 mph 29 % 0.0 in
14:47 30.9 °F 10.8 °F 1015.8 in ESE 9.3 mph 9.3 mph 29 % 0.0 in
14:52 30.9 °F 10.8 °F 1015.8 in SW 13.0 mph 13.0 mph 29 % 0.0 in
14:57 32.0 °F 11.2 °F 1015.8 in SW 7.4 mph 7.4 mph 28 % 0.0 in
15:02 32.9 °F 12.0 °F 1015.8 in South 7.4 mph 7.4 mph 28 % 0.0 in
15:07 32.6 °F 11.7 °F 1015.8 in SSE 5.6 mph 5.6 mph 28 % 0.0 in
15:12 32.7 °F 11.3 °F 1015.8 in South 5.6 mph 5.6 mph 27 % 0.0 in
15:17 32.7 °F 11.3 °F 1015.8 in NNW 9.3 mph 9.3 mph 27 % 0.0 in
15:22 33.0 °F 11.5 °F 1015.8 in SW 10.0 mph 10.0 mph 27 % 0.0 in
15:27 33.3 °F 11.8 °F 1015.8 in WSW 9.0 mph 9.0 mph 27 % 0.0 in
15:32 33.4 °F 11.3 °F 1015.8 in SSW 9.5 mph 9.5 mph 26 % 0.0 in
15:37 33.1 °F 11.0 °F 1015.8 in SW 9.3 mph 9.3 mph 26 % 0.0 in
15:42 33.1 °F 10.4 °F 1015.8 in South 13.0 mph 13.0 mph 25 % 0.0 in
15:47 33.5 °F 11.4 °F 1015.8 in South 11.1 mph 11.1 mph 26 % 0.0 in
15:52 32.9 °F 10.3 °F 1015.8 in South 11.1 mph 11.1 mph 25 % 0.0 in
15:57 32.6 °F 9.4 °F 1015.8 in SW 15.8 mph 15.8 mph 24 % 0.0 in
16:02 32.3 °F 9.8 °F 1014.8 in SW 14.8 mph 14.8 mph 25 % 0.0 in
16:07 32.2 °F 9.7 °F 1014.8 in SSW 10.3 mph 10.3 mph 25 % 0.0 in
16:12 32.5 °F 9.9 °F 1014.8 in WSW 12.2 mph 12.2 mph 25 % 0.0 in
16:17 32.6 °F 10.0 °F 1015.8 in SW 13.0 mph 13.0 mph 25 % 0.0 in
16:22 32.1 °F 9.6 °F 1015.8 in WSW 11.1 mph 11.1 mph 25 % 0.0 in
16:27 31.9 °F 10.0 °F 1015.8 in South 16.7 mph 16.7 mph 26 % 0.0 in
16:32 32.0 °F 9.5 °F 1015.8 in WSW 16.7 mph 16.7 mph 25 % 0.0 in
16:37 31.9 °F 10.0 °F 1015.8 in SW 11.1 mph 11.1 mph 26 % 0.0 in
16:42 31.7 °F 9.8 °F 1015.8 in WSW 16.7 mph 16.7 mph 26 % 0.0 in
16:47 31.9 °F 10.0 °F 1014.8 in SW 15.6 mph 15.6 mph 26 % 0.0 in
16:52 32.2 °F 9.7 °F 1014.8 in SW 7.6 mph 7.6 mph 25 % 0.0 in
16:57 31.9 °F 10.0 °F 1014.8 in SSW 16.7 mph 16.7 mph 26 % 0.0 in
17:02 31.9 °F 10.0 °F 1015.8 in SW 12.6 mph 12.6 mph 26 % 0.0 in
17:07 32.0 °F 9.5 °F 1015.8 in SSW 9.3 mph 9.3 mph 25 % 0.0 in
17:12 31.9 °F 10.0 °F 1015.8 in SW 13.0 mph 13.0 mph 26 % 0.0 in
17:17 31.5 °F 9.1 °F 1015.8 in SW 11.1 mph 11.1 mph 25 % 0.0 in
17:22 31.5 °F 9.7 °F 1015.8 in WSW 9.5 mph 9.5 mph 26 % 0.0 in
17:27 31.4 °F 9.6 °F 1015.8 in SW 17.2 mph 17.2 mph 26 % 0.0 in
17:32 31.2 °F 9.4 °F 1015.8 in SSW 16.7 mph 16.7 mph 26 % 0.0 in
17:37 31.2 °F 9.4 °F 1015.8 in WNW 9.3 mph 9.3 mph 26 % 0.0 in
17:42 31.2 °F 9.4 °F 1015.8 in SW 13.0 mph 13.0 mph 26 % 0.0 in
17:47 31.2 °F 9.4 °F 1015.8 in SW 6.4 mph 6.4 mph 26 % 0.0 in
17:52 30.9 °F 9.2 °F 1015.8 in SW 16.7 mph 16.7 mph 26 % 0.0 in
17:57 31.1 °F 9.9 °F 1015.8 in South 9.3 mph 9.3 mph 27 % 0.0 in
18:02 31.3 °F 10.1 °F 1015.8 in SSW 7.4 mph 7.4 mph 27 % 0.0 in
18:07 31.3 °F 10.1 °F 1015.8 in South 11.1 mph 11.1 mph 27 % 0.0 in
18:12 31.3 °F 10.1 °F 1015.8 in WSW 12.6 mph 12.6 mph 27 % 0.0 in
18:17 31.2 °F 10.0 °F 1015.8 in SW 11.9 mph 11.9 mph 27 % 0.0 in
18:18 31.1 °F 9.9 °F 1015.8 in SW 11.1 mph 11.1 mph 27 % 0.0 in
18:23 30.7 °F 9.6 °F 1015.8 in SW 10.0 mph 10.0 mph 27 % 0.0 in
18:28 31.0 °F 9.8 °F 1015.8 in SSW 7.9 mph 7.9 mph 27 % 0.0 in
18:33 30.3 °F 9.2 °F 1015.8 in South 13.0 mph 13.0 mph 27 % 0.0 in
18:38 30.0 °F 8.9 °F 1015.8 in SSW 9.3 mph 9.3 mph 27 % 0.0 in
18:43 30.3 °F 9.8 °F 1015.8 in SSW 11.1 mph 11.1 mph 28 % 0.0 in
18:48 30.0 °F 9.5 °F 1015.8 in SW 16.7 mph 16.7 mph 28 % 0.0 in
18:53 29.8 °F 9.3 °F 1015.8 in SW 9.3 mph 9.3 mph 28 % 0.0 in
18:58 29.7 °F 9.2 °F 1015.8 in South 13.0 mph 13.0 mph 28 % 0.0 in
19:03 29.4 °F 9.0 °F 1015.8 in SW 10.0 mph 10.0 mph 28 % 0.0 in
19:08 29.2 °F 8.8 °F 1015.8 in SSW 7.4 mph 7.4 mph 28 % 0.0 in
19:13 29.1 °F 8.7 °F 1015.8 in SW 17.2 mph 17.2 mph 28 % 0.0 in
19:18 28.9 °F 9.1 °F 1015.8 in South 11.1 mph 11.1 mph 29 % 0.0 in
19:20 21.7 °F 10.2 °F 1017.8 in WSW 3.2 mph 3.2 mph 48 % 0.0 in
19:23 28.9 °F 9.1 °F 1015.8 in WSW 9.3 mph 9.3 mph 29 % 0.0 in
19:24 28.9 °F 9.1 °F 1015.8 in SSW 6.4 mph 6.4 mph 29 % 0.0 in
19:29 28.5 °F 8.7 °F 1015.8 in WSW 13.0 mph 13.0 mph 29 % 0.0 in
19:30 21.5 °F 10.3 °F 1017.8 in WSW 1.6 mph 3.2 mph 49 % 0.0 in
19:34 28.2 °F 8.5 °F 1015.8 in WSW 10.8 mph 10.8 mph 29 % 0.0 in
19:39 28.2 °F 8.5 °F 1015.8 in WSW 9.3 mph 9.3 mph 29 % 0.0 in
19:40 21.4 °F 10.6 °F 1017.8 in WSW 1.6 mph 3.2 mph 50 % 0.0 in
19:44 27.9 °F 8.7 °F 1015.8 in SSW 11.1 mph 11.1 mph 30 % 0.0 in
19:49 27.7 °F 8.6 °F 1015.8 in WSW 14.8 mph 14.8 mph 30 % 0.0 in
19:54 27.5 °F 8.4 °F 1015.8 in South 13.0 mph 13.0 mph 30 % 0.0 in
19:59 27.3 °F 8.2 °F 1015.8 in SW 11.1 mph 11.1 mph 30 % 0.0 in
20:00 21.2 °F 11.2 °F 1017.8 in Calm   3.2 mph 53 % 0.0 in
20:04 27.1 °F 8.0 °F 1015.8 in WSW 9.3 mph 9.3 mph 30 % 0.0 in
20:09 27.0 °F 7.9 °F 1015.8 in WSW 7.4 mph 7.4 mph 30 % 0.0 in
20:10 20.9 °F 11.5 °F 1017.8 in Calm     55 % 0.0 in
20:14 26.9 °F 7.8 °F 1015.8 in SW 7.4 mph 7.4 mph 30 % 0.0 in
20:19 26.8 °F 8.3 °F 1015.8 in SSW 7.4 mph 7.4 mph 31 % 0.0 in
20:20 20.6 °F 11.2 °F 1017.8 in Calm     55 % 0.0 in
20:24 26.6 °F 8.1 °F 1015.8 in SSW 5.6 mph 5.6 mph 31 % 0.0 in
20:29 26.5 °F 8.0 °F 1015.8 in SSW 6.4 mph 6.4 mph 31 % 0.0 in
20:30 20.4 °F 11.3 °F 1017.8 in Calm   3.2 mph 56 % 0.0 in
20:34 26.3 °F 7.8 °F 1015.8 in WSW 6.9 mph 6.9 mph 31 % 0.0 in
20:39 26.1 °F 8.1 °F 1015.8 in WSW 5.6 mph 5.6 mph 32 % 0.0 in
20:40 20.2 °F 11.7 °F 1017.8 in Calm     58 % 0.0 in
20:44 25.9 °F 7.9 °F 1015.8 in SW 13.0 mph 13.0 mph 32 % 0.0 in
20:49 25.7 °F 7.8 °F 1015.8 in SW 7.9 mph 7.9 mph 32 % 0.0 in
20:50 20.2 °F 11.9 °F 1017.8 in Calm     59 % 0.0 in
20:54 25.6 °F 8.1 °F 1015.8 in SW 6.1 mph 6.1 mph 33 % 0.0 in
20:59 25.4 °F 7.9 °F 1015.8 in SSW 9.3 mph 9.3 mph 33 % 0.0 in
21:00 20.4 °F 12.1 °F 1017.8 in WSW 1.6 mph 3.2 mph 59 % 0.0 in
21:04 25.3 °F 7.9 °F 1015.8 in SW 9.3 mph 9.3 mph 33 % 0.0 in
21:09 25.1 °F 8.1 °F 1015.8 in SSW 4.2 mph 4.2 mph 34 % 0.0 in
21:10 20.6 °F 12.1 °F 1016.8 in West 3.2 mph 3.2 mph 58 % 0.0 in
21:14 24.9 °F 8.4 °F 1015.8 in SSW 4.2 mph 4.2 mph 35 % 0.0 in
21:19 24.7 °F 8.2 °F 1015.8 in SSW 11.1 mph 11.1 mph 35 % 0.0 in
21:20 20.7 °F 12.4 °F 1016.8 in WSW 1.6 mph 3.2 mph 59 % 0.0 in
21:24 24.5 °F 8.4 °F 1015.8 in SW 7.4 mph 7.4 mph 36 % 0.0 in
21:29 24.4 °F 8.3 °F 1015.8 in SW 4.7 mph 4.7 mph 36 % 0.0 in
21:30 20.6 °F 12.3 °F 1015.8 in Calm   1.6 mph 59 % 0.0 in
21:34 24.2 °F 8.6 °F 1015.8 in SSW 2.3 mph 3.5 mph 37 % 0.0 in
21:39 24.0 °F 8.4 °F 1015.8 in SW 4.2 mph 4.2 mph 37 % 0.0 in
21:40 20.1 °F 12.1 °F 1015.8 in West 1.6 mph 3.2 mph 60 % 0.0 in
21:44 23.9 °F 8.3 °F 1015.8 in SW 5.6 mph 5.6 mph 37 % 0.0 in
21:49 23.8 °F 8.6 °F 1015.8 in WSW 4.7 mph 4.7 mph 38 % 0.0 in
21:50 19.7 °F 12.2 °F 1015.8 in North 1.6 mph 1.6 mph 62 % 0.0 in
21:54 23.6 °F 8.4 °F 1015.8 in SW 5.6 mph 5.6 mph 38 % 0.0 in
21:59 23.5 °F 8.7 °F 1015.8 in WSW 3.7 mph 3.7 mph 39 % 0.0 in
22:00 19.4 °F 11.9 °F 1015.8 in Calm   1.6 mph 62 % 0.0 in
22:04 23.4 °F 8.7 °F 1014.8 in WSW 3.7 mph 3.7 mph 39 % 0.0 in
22:09 23.3 °F 8.6 °F 1014.8 in WSW 5.6 mph 5.6 mph 39 % 0.0 in
22:10 19.1 °F 11.9 °F 1015.8 in Calm     63 % 0.0 in
22:14 23.2 °F 8.8 °F 1014.8 in WSW 3.7 mph 3.7 mph 40 % 0.0 in
22:19 23.0 °F 8.7 °F 1015.8 in WSW 3.7 mph 3.7 mph 40 % 0.0 in
22:20 18.8 °F 12.1 °F 1015.8 in Calm     65 % 0.0 in
22:24 22.9 °F 9.3 °F 1015.8 in WSW 2.3 mph 2.3 mph 42 % 0.0 in
22:29 22.8 °F 9.2 °F 1015.8 in WSW 1.9 mph 1.9 mph 42 % 0.0 in
22:30 18.5 °F 11.6 °F 1015.8 in North 1.6 mph 1.6 mph 64 % 0.0 in
22:34 22.6 °F 9.4 °F 1015.8 in WSW 3.7 mph 3.7 mph 43 % 0.0 in
22:39 22.6 °F 9.4 °F 1015.8 in WSW 1.9 mph 1.9 mph 43 % 0.0 in
22:40 18.1 °F 11.2 °F 1015.8 in West 1.6 mph 3.2 mph 64 % 0.0 in
22:44 22.5 °F 9.3 °F 1015.8 in West 4.2 mph 4.2 mph 43 % 0.0 in
22:49 22.4 °F 9.6 °F 1016.8 in SW 3.7 mph 3.7 mph 44 % 0.0 in
22:50 18.0 °F 11.1 °F 1015.8 in Calm   1.6 mph 64 % 0.0 in
22:54 22.3 °F 9.8 °F 1016.8 in SW 1.9 mph 1.9 mph 45 % 0.0 in
22:59 22.2 °F 9.7 °F 1016.8 in WSW 2.6 mph   45 % 0.0 in
23:00 18.0 °F 11.1 °F 1015.8 in SW 1.6 mph 3.2 mph 64 % 0.0 in
23:04 22.1 °F 9.6 °F 1016.8 in WSW 1.9 mph 1.9 mph 45 % 0.0 in
23:09 22.1 °F 9.9 °F 1016.8 in WSW 2.6 mph   46 % 0.0 in
23:10 18.0 °F 11.1 °F 1014.8 in Calm     64 % 0.0 in
23:14 22.0 °F 9.8 °F 1016.8 in WSW 3.7 mph   46 % 0.0 in
23:19 22.0 °F 9.8 °F 1017.8 in West 3.7 mph 3.7 mph 46 % 0.0 in
23:20 17.9 °F 11.0 °F 1014.8 in South 1.6 mph 3.2 mph 64 % 0.0 in
23:24 22.0 °F 9.8 °F 1017.8 in West 2.6 mph 2.6 mph 46 % 0.0 in
23:29 22.0 °F 9.8 °F 1017.8 in WSW 3.7 mph 3.7 mph 46 % 0.0 in
23:30 17.8 °F 10.9 °F 1014.8 in Calm   1.6 mph 64 % 0.0 in
23:34 22.0 °F 10.2 °F 1017.8 in West 3.2 mph 3.2 mph 47 % 0.0 in
23:39 21.9 °F 10.1 °F 1017.8 in West 3.7 mph 3.7 mph 47 % 0.0 in
23:40 17.8 °F 10.7 °F 1015.8 in SW 1.6 mph 3.2 mph 63 % 0.0 in
23:44 21.9 °F 10.1 °F 1017.8 in WSW 3.7 mph 3.7 mph 47 % 0.0 in
23:49 21.9 °F 10.1 °F 1017.8 in WSW 3.7 mph 3.7 mph 47 % 0.0 in
23:50 17.6 °F 10.2 °F 1015.8 in Calm   1.6 mph 62 % 0.0 in
23:54 21.9 °F 10.4 °F 1017.8 in WSW 2.6 mph 2.6 mph 48 % 0.0 in
23:59 21.9 °F 10.4 °F 1017.8 in West 3.7 mph 3.7 mph 48 % 0.0 in
Meteo Sesrovires
Elogis d' Weather Underground - 1.5 mb

Guio original per  Jim McMurry - jmcmurry@mwt.net Adaptat per a la plantilla per  Wim van der Kuil - Leuven-Template.eu

Trobareu la nostra informacio del temps tambe a:

Weather Underground

AWEKAS